createdAt,value
2024-02-27T00:00:27.605Z,5.10
2024-02-27T00:02:54.696Z,5.10
2024-02-27T00:05:21.693Z,5.20
2024-02-27T00:07:48.620Z,5.20
2024-02-27T00:10:15.694Z,5.10
2024-02-27T00:12:42.806Z,5.20
2024-02-27T00:15:11.008Z,5.10
2024-02-27T00:17:38.036Z,5.10
2024-02-27T00:20:06.163Z,5.00
2024-02-27T00:22:33.189Z,5.00
2024-02-27T00:25:00.084Z,4.90
2024-02-27T00:27:27.076Z,5.00
2024-02-27T00:29:54.970Z,5.00
2024-02-27T00:32:22.004Z,5.00
2024-02-27T00:34:48.942Z,4.90
2024-02-27T00:37:15.861Z,5.00
2024-02-27T00:39:42.770Z,4.90
2024-02-27T00:42:09.776Z,4.90
2024-02-27T00:44:39.262Z,4.90
2024-02-27T00:47:06.322Z,5.00
2024-02-27T00:49:33.295Z,5.00
2024-02-27T00:52:00.247Z,5.00
2024-02-27T00:54:27.233Z,5.00
2024-02-27T00:56:54.229Z,5.00
2024-02-27T00:59:21.163Z,5.00
2024-02-27T01:01:48.081Z,5.00
2024-02-27T01:04:15.048Z,4.90
2024-02-27T01:06:42.062Z,4.90
2024-02-27T01:09:09.017Z,4.90
2024-02-27T01:11:36.217Z,4.90
2024-02-27T01:14:03.357Z,4.90
2024-02-27T01:16:30.267Z,5.00
2024-02-27T01:18:57.216Z,4.90
2024-02-27T01:21:24.196Z,5.00
2024-02-27T01:23:51.068Z,4.90
2024-02-27T01:26:17.928Z,4.90
2024-02-27T01:28:44.815Z,5.10
2024-02-27T01:31:11.851Z,4.90
2024-02-27T01:33:39.983Z,4.90
2024-02-27T01:36:07.617Z,4.80
2024-02-27T01:38:34.809Z,4.70
2024-02-27T01:41:01.727Z,4.70
2024-02-27T01:43:28.617Z,4.80
2024-02-27T01:46:10.890Z,4.80
2024-02-27T01:48:38.221Z,4.80
2024-02-27T01:51:05.979Z,4.70
2024-02-27T01:53:33.109Z,4.60
2024-02-27T01:56:00.222Z,4.70
2024-02-27T01:58:27.496Z,4.80
2024-02-27T02:00:54.656Z,4.80
2024-02-27T02:03:24.638Z,4.80
2024-02-27T02:05:52.293Z,4.70
2024-02-27T02:08:19.415Z,4.80
2024-02-27T02:10:46.347Z,4.70
2024-02-27T02:13:13.721Z,4.60
2024-02-27T02:15:40.773Z,4.50
2024-02-27T02:18:08.014Z,4.60
2024-02-27T02:20:34.993Z,4.60
2024-02-27T02:23:02.431Z,4.70
2024-02-27T02:25:34.027Z,4.60
2024-02-27T02:28:00.962Z,4.90
2024-02-27T02:30:28.046Z,4.60
2024-02-27T02:32:55.277Z,4.60
2024-02-27T02:35:22.388Z,4.60
2024-02-27T02:37:50.976Z,4.60
2024-02-27T02:40:20.836Z,4.70
2024-02-27T02:42:48.401Z,4.60
2024-02-27T02:45:16.096Z,4.60
2024-02-27T02:47:43.188Z,4.70
2024-02-27T02:50:11.494Z,4.70
2024-02-27T02:52:38.473Z,4.70
2024-02-27T02:55:07.009Z,4.80
2024-02-27T02:57:34.351Z,4.70
2024-02-27T03:00:02.364Z,4.60
2024-02-27T03:02:29.347Z,4.60
2024-02-27T03:04:56.239Z,4.70
2024-02-27T03:07:23.217Z,4.70
2024-02-27T03:09:50.085Z,4.70
2024-02-27T03:12:18.802Z,4.70
2024-02-27T03:14:47.252Z,4.70
2024-02-27T03:17:15.814Z,4.80
2024-02-27T03:19:43.503Z,4.60
2024-02-27T03:22:11.210Z,4.70
2024-02-27T03:24:38.575Z,4.60
2024-02-27T03:27:05.642Z,4.60
2024-02-27T03:29:32.667Z,4.60
2024-02-27T03:31:59.628Z,4.60
2024-02-27T03:34:27.547Z,4.60
2024-02-27T03:36:54.952Z,4.60
2024-02-27T03:39:22.032Z,4.60
2024-02-27T03:41:49.012Z,4.80
2024-02-27T03:44:15.941Z,4.60
2024-02-27T03:46:42.888Z,4.50
2024-02-27T03:49:09.957Z,4.50
2024-02-27T03:51:37.330Z,4.50
2024-02-27T03:54:05.230Z,4.50
2024-02-27T03:56:32.223Z,4.50
2024-02-27T03:58:59.170Z,4.40
2024-02-27T04:01:27.829Z,4.40
2024-02-27T04:03:54.808Z,4.50
2024-02-27T04:06:21.774Z,4.50
2024-02-27T04:08:48.735Z,4.60
2024-02-27T04:11:15.954Z,4.60
2024-02-27T04:13:42.875Z,4.70
2024-02-27T04:16:09.870Z,4.70
2024-02-27T04:18:36.870Z,4.70
2024-02-27T04:21:04.692Z,4.70
2024-02-27T04:23:31.680Z,4.70
2024-02-27T04:25:58.550Z,4.60
2024-02-27T04:28:25.529Z,4.60
2024-02-27T04:30:52.392Z,4.70
2024-02-27T04:33:19.452Z,4.70
2024-02-27T04:35:46.723Z,4.60
2024-02-27T04:38:13.719Z,4.60
2024-02-27T04:40:42.260Z,4.50
2024-02-27T04:43:09.395Z,4.60
2024-02-27T04:45:36.530Z,4.60
2024-02-27T04:48:05.703Z,4.60
2024-02-27T04:50:32.722Z,4.60
2024-02-27T04:53:01.151Z,4.60
2024-02-27T04:55:30.253Z,4.60
2024-02-27T04:57:57.732Z,4.70
2024-02-27T05:00:24.919Z,4.70
2024-02-27T05:02:51.863Z,4.70
2024-02-27T05:05:18.887Z,4.70
2024-02-27T05:07:45.942Z,4.70
2024-02-27T05:10:13.033Z,4.80
2024-02-27T05:12:39.904Z,4.70
2024-02-27T05:15:07.450Z,4.70
2024-02-27T05:17:34.390Z,4.70
2024-02-27T05:20:01.293Z,4.80
2024-02-27T05:22:28.182Z,4.60
2024-02-27T05:24:55.056Z,4.70
2024-02-27T05:27:21.997Z,4.60
2024-02-27T05:29:48.934Z,4.60
2024-02-27T05:32:15.811Z,4.70
2024-02-27T05:34:42.756Z,4.60
2024-02-27T05:37:09.833Z,4.60
2024-02-27T05:39:36.843Z,4.70
2024-02-27T05:42:04.181Z,4.70
2024-02-27T05:44:31.220Z,4.70
2024-02-27T05:46:58.117Z,4.70
2024-02-27T05:49:25.174Z,4.60
2024-02-27T05:51:52.104Z,4.60
2024-02-27T05:54:21.479Z,4.50
2024-02-27T05:56:49.044Z,4.60
2024-02-27T05:59:16.006Z,4.50
2024-02-27T06:01:42.902Z,4.60
2024-02-27T06:04:09.900Z,4.70
2024-02-27T06:06:36.990Z,4.70
2024-02-27T06:09:04.997Z,4.60
2024-02-27T06:11:31.998Z,4.60
2024-02-27T06:14:00.702Z,4.60
2024-02-27T06:16:27.642Z,4.70
2024-02-27T06:18:56.540Z,4.80
2024-02-27T06:21:42.393Z,4.80
2024-02-27T06:24:09.393Z,4.80
2024-02-27T06:26:36.453Z,4.90
2024-02-27T06:29:04.617Z,4.90
2024-02-27T06:31:31.638Z,5.00
2024-02-27T06:33:58.657Z,4.90
2024-02-27T06:36:25.776Z,4.80
2024-02-27T06:38:57.097Z,5.10
2024-02-27T06:41:25.205Z,4.90
2024-02-27T06:43:52.235Z,4.90
2024-02-27T06:46:19.147Z,4.80
2024-02-27T06:48:46.500Z,4.90
2024-02-27T06:51:13.714Z,4.90
2024-02-27T06:53:42.231Z,4.90
2024-02-27T06:56:09.214Z,5.00
2024-02-27T06:58:36.157Z,5.00
2024-02-27T07:01:03.112Z,5.10
2024-02-27T07:03:30.346Z,5.00
2024-02-27T07:05:58.909Z,5.10
2024-02-27T07:08:25.876Z,5.20
2024-02-27T07:10:52.757Z,5.20
2024-02-27T07:13:19.930Z,5.30
2024-02-27T07:15:47.973Z,5.20
2024-02-27T07:18:17.228Z,5.30
2024-02-27T07:20:44.695Z,5.40
2024-02-27T07:23:11.674Z,5.30
2024-02-27T07:25:38.587Z,5.40
2024-02-27T07:28:08.097Z,5.50
2024-02-27T07:30:36.524Z,5.60
2024-02-27T07:33:03.896Z,5.60
2024-02-27T07:35:30.919Z,5.60
2024-02-27T07:37:57.880Z,5.70
2024-02-27T07:40:24.829Z,5.80
2024-02-27T07:42:52.736Z,5.90
2024-02-27T07:45:19.676Z,5.80
2024-02-27T07:47:46.613Z,5.80
2024-02-27T07:50:13.568Z,5.90
2024-02-27T07:52:40.519Z,5.90
2024-02-27T07:55:07.904Z,6.00
2024-02-27T07:57:34.835Z,6.10
2024-02-27T08:00:01.972Z,6.20
2024-02-27T08:02:28.990Z,6.30
2024-02-27T08:04:55.866Z,6.40
2024-02-27T08:07:22.800Z,6.40
2024-02-27T08:09:49.927Z,6.30
2024-02-27T08:12:17.113Z,6.40
2024-02-27T08:14:43.991Z,6.50
2024-02-27T08:17:11.724Z,6.70
2024-02-27T08:19:40.679Z,6.90
2024-02-27T08:22:08.037Z,7.20
2024-02-27T08:24:35.125Z,7.30
2024-02-27T08:27:05.468Z,7.40
2024-02-27T08:29:33.835Z,7.60
2024-02-27T08:32:00.742Z,7.80
2024-02-27T08:34:28.035Z,7.90
2024-02-27T08:36:55.168Z,8.20
2024-02-27T08:39:22.129Z,8.00
2024-02-27T08:41:49.148Z,8.10
2024-02-27T08:44:16.062Z,8.20
2024-02-27T08:46:44.693Z,8.10
2024-02-27T08:49:11.701Z,8.10
2024-02-27T08:51:38.810Z,8.10
2024-02-27T08:54:05.882Z,8.30
2024-02-27T08:56:32.856Z,8.50
2024-02-27T08:58:59.890Z,8.70
2024-02-27T09:01:26.859Z,8.80
2024-02-27T09:03:53.998Z,8.80
2024-02-27T09:06:20.990Z,9.00
2024-02-27T09:08:47.979Z,8.90
2024-02-27T09:11:14.957Z,9.00
2024-02-27T09:13:41.855Z,9.00
2024-02-27T09:16:08.964Z,9.00
2024-02-27T09:18:36.542Z,9.20
2024-02-27T09:21:04.114Z,9.00
2024-02-27T09:23:31.097Z,9.20
2024-02-27T09:25:58.122Z,9.30
2024-02-27T09:28:25.051Z,9.50
2024-02-27T09:30:51.982Z,9.50
2024-02-27T09:33:19.028Z,9.50
2024-02-27T09:35:46.337Z,9.50
2024-02-27T09:38:13.247Z,9.60
2024-02-27T09:40:42.653Z,9.70
2024-02-27T09:43:24.234Z,9.80
2024-02-27T09:45:51.235Z,9.80
2024-02-27T09:48:21.721Z,9.90
2024-02-27T09:50:51.873Z,9.80
2024-02-27T09:53:21.108Z,9.80
2024-02-27T09:55:48.231Z,9.90
2024-02-27T09:58:17.439Z,9.80
2024-02-27T10:00:44.577Z,9.60
2024-02-27T10:03:13.070Z,9.60
2024-02-27T10:05:42.536Z,9.60
2024-02-27T10:08:21.199Z,9.40
2024-02-27T10:10:48.981Z,9.10
2024-02-27T10:13:15.925Z,9.10
2024-02-27T10:15:43.004Z,8.90
2024-02-27T10:18:10.192Z,9.00
2024-02-27T10:20:37.282Z,9.00
2024-02-27T10:23:05.273Z,9.20
2024-02-27T10:25:32.285Z,9.20
2024-02-27T10:28:00.603Z,9.20
2024-02-27T10:30:29.174Z,9.20
2024-02-27T10:32:56.319Z,9.10
2024-02-27T10:35:25.358Z,9.00
2024-02-27T10:37:52.603Z,9.00
2024-02-27T10:40:20.710Z,8.90
2024-02-27T10:42:48.810Z,9.00
2024-02-27T10:45:16.949Z,9.00
2024-02-27T10:47:47.327Z,9.00
2024-02-27T10:50:16.628Z,9.10
2024-02-27T10:52:45.417Z,9.10
2024-02-27T10:55:13.939Z,8.80
2024-02-27T10:57:41.763Z,9.00
2024-02-27T11:00:09.725Z,9.00
2024-02-27T11:02:42.009Z,9.20
2024-02-27T11:05:10.787Z,9.30
2024-02-27T11:07:37.796Z,9.30
2024-02-27T11:10:06.423Z,9.20
2024-02-27T11:12:36.543Z,9.20
2024-02-27T11:15:09.746Z,9.10
2024-02-27T11:17:47.747Z,9.30
2024-02-27T11:20:17.029Z,9.30
2024-02-27T11:22:46.081Z,9.20
2024-02-27T11:25:14.088Z,9.50
2024-02-27T11:27:41.973Z,9.40
2024-02-27T11:30:10.377Z,9.30
2024-02-27T11:32:39.147Z,9.10
2024-02-27T11:35:07.847Z,9.00
2024-02-27T11:37:35.929Z,9.00
2024-02-27T11:40:05.664Z,8.90
2024-02-27T11:42:44.707Z,9.10
2024-02-27T11:45:26.388Z,9.50
2024-02-27T11:47:53.864Z,9.80
2024-02-27T11:50:36.650Z,9.90
2024-02-27T11:53:19.257Z,10.00
2024-02-27T11:55:47.732Z,10.10
2024-02-27T11:58:15.933Z,10.20
2024-02-27T12:00:47.136Z,10.50
2024-02-27T12:03:14.570Z,10.50
2024-02-27T12:05:45.062Z,10.60
2024-02-27T12:08:12.048Z,10.60
2024-02-27T12:10:39.396Z,10.50
2024-02-27T12:13:06.262Z,10.40
2024-02-27T12:15:33.251Z,10.50
2024-02-27T12:18:00.438Z,10.70
2024-02-27T12:20:27.457Z,11.00
2024-02-27T12:22:54.822Z,11.10
2024-02-27T12:25:21.813Z,11.00
2024-02-27T12:27:55.096Z,10.80
2024-02-27T12:30:24.432Z,10.80
2024-02-27T12:32:52.412Z,10.90
2024-02-27T12:35:19.948Z,11.00
2024-02-27T12:37:50.760Z,11.00
2024-02-27T12:40:21.024Z,11.10
2024-02-27T12:42:51.653Z,11.20
2024-02-27T12:45:20.371Z,11.30
2024-02-27T12:47:51.704Z,11.10
2024-02-27T12:50:21.571Z,11.10
2024-02-27T12:52:58.718Z,10.90
2024-02-27T12:55:33.808Z,11.30
2024-02-27T12:58:00.942Z,11.70
2024-02-27T13:00:32.649Z,12.00
2024-02-27T13:02:59.873Z,11.70
2024-02-27T13:05:28.011Z,11.60
2024-02-27T13:07:56.901Z,12.00
2024-02-27T13:10:24.517Z,11.70
2024-02-27T13:13:11.866Z,11.90
2024-02-27T13:15:43.055Z,11.60
2024-02-27T13:18:13.628Z,11.60
2024-02-27T13:20:41.867Z,11.70
2024-02-27T13:23:17.009Z,11.90
2024-02-27T13:25:51.816Z,12.00
2024-02-27T13:28:19.754Z,11.90
2024-02-27T13:30:47.228Z,11.60
2024-02-27T13:33:14.448Z,11.40
2024-02-27T13:35:41.408Z,11.30
2024-02-27T13:38:08.329Z,11.10
2024-02-27T13:40:35.193Z,11.20
2024-02-27T13:43:03.936Z,11.00
2024-02-27T13:45:30.946Z,10.90
2024-02-27T13:47:57.914Z,11.00
2024-02-27T13:50:25.776Z,11.20
2024-02-27T13:52:52.705Z,11.20
2024-02-27T13:55:19.599Z,11.50
2024-02-27T13:57:46.607Z,11.70
2024-02-27T14:00:14.371Z,11.70
2024-02-27T14:02:41.892Z,11.70
2024-02-27T14:05:09.678Z,11.70
2024-02-27T14:07:38.056Z,11.60
2024-02-27T14:10:06.184Z,11.40
2024-02-27T14:12:33.642Z,11.50
2024-02-27T14:15:00.924Z,11.60
2024-02-27T14:17:27.877Z,11.70
2024-02-27T14:19:55.065Z,11.70
2024-02-27T14:22:23.067Z,11.70
2024-02-27T14:24:50.135Z,11.90
2024-02-27T14:27:17.159Z,11.90
2024-02-27T14:29:44.649Z,12.10
2024-02-27T14:32:11.754Z,12.10
2024-02-27T14:34:39.151Z,12.20
2024-02-27T14:37:06.656Z,12.20
2024-02-27T14:39:33.681Z,12.30
2024-02-27T14:42:00.717Z,12.20
2024-02-27T14:44:28.209Z,12.30
2024-02-27T14:46:55.668Z,13.10
2024-02-27T14:49:23.411Z,13.70
2024-02-27T14:51:56.528Z,13.60
2024-02-27T14:54:24.446Z,13.60
2024-02-27T14:56:52.550Z,13.70
2024-02-27T14:59:19.922Z,13.50
2024-02-27T15:01:53.865Z,13.20
2024-02-27T15:04:27.018Z,13.00
2024-02-27T15:06:54.169Z,13.00
2024-02-27T15:09:21.368Z,12.90
2024-02-27T15:11:48.256Z,12.80
2024-02-27T15:14:15.226Z,12.70
2024-02-27T15:16:42.218Z,12.30
2024-02-27T15:19:09.357Z,11.90
2024-02-27T15:21:36.766Z,11.80
2024-02-27T15:24:05.041Z,11.80
2024-02-27T15:26:32.209Z,11.70
2024-02-27T15:28:59.440Z,11.50
2024-02-27T15:31:26.436Z,11.60
2024-02-27T15:33:53.488Z,11.60
2024-02-27T15:36:20.781Z,11.50
2024-02-27T15:38:47.760Z,11.40
2024-02-27T15:41:14.780Z,11.20
2024-02-27T15:43:42.079Z,11.20
2024-02-27T15:46:10.512Z,10.80
2024-02-27T15:48:38.121Z,10.70
2024-02-27T15:51:09.662Z,10.50
2024-02-27T15:53:40.790Z,10.20
2024-02-27T15:56:09.113Z,10.10
2024-02-27T15:58:38.122Z,10.10
2024-02-27T16:01:06.437Z,10.20
2024-02-27T16:04:29.811Z,10.10
2024-02-27T16:07:12.566Z,10.10
2024-02-27T16:09:40.764Z,10.00
2024-02-27T16:12:18.388Z,9.90
2024-02-27T16:14:50.738Z,9.90
2024-02-27T16:17:18.798Z,9.80
2024-02-27T16:19:46.156Z,9.70
2024-02-27T16:22:13.428Z,9.70
2024-02-27T16:24:40.393Z,9.50
2024-02-27T16:27:07.427Z,9.40
2024-02-27T16:29:34.423Z,9.30
2024-02-27T16:32:01.759Z,9.20
2024-02-27T16:34:29.095Z,9.20
2024-02-27T16:36:58.807Z,9.10
2024-02-27T16:39:25.792Z,9.20
2024-02-27T16:41:52.787Z,8.90
2024-02-27T16:44:19.736Z,8.80
2024-02-27T16:46:47.277Z,8.70
2024-02-27T16:49:14.311Z,8.60
2024-02-27T16:51:41.407Z,8.60
2024-02-27T16:54:09.133Z,8.50
2024-02-27T16:56:37.311Z,8.40
2024-02-27T16:59:04.702Z,8.20
2024-02-27T17:01:31.763Z,8.10
2024-02-27T17:03:58.850Z,8.00
2024-02-27T17:06:27.614Z,8.00
2024-02-27T17:08:54.835Z,7.80
2024-02-27T17:11:21.778Z,7.80
2024-02-27T17:13:48.768Z,7.80
2024-02-27T17:16:15.657Z,7.80
2024-02-27T17:18:42.621Z,7.80
2024-02-27T17:21:09.835Z,7.80
2024-02-27T17:23:36.822Z,7.70
2024-02-27T17:26:04.737Z,7.80
2024-02-27T17:28:31.751Z,7.70
2024-02-27T17:30:58.740Z,7.70
2024-02-27T17:33:26.176Z,7.70
2024-02-27T17:35:53.344Z,7.50
2024-02-27T17:38:20.237Z,7.50
2024-02-27T17:40:47.192Z,7.40
2024-02-27T17:43:14.178Z,7.30
2024-02-27T17:45:41.170Z,7.30
2024-02-27T17:48:14.323Z,7.30
2024-02-27T17:50:41.878Z,7.20
2024-02-27T17:53:09.997Z,7.30
2024-02-27T17:55:36.947Z,7.20
2024-02-27T17:58:06.624Z,7.20
2024-02-27T18:00:33.777Z,7.00
2024-02-27T18:03:01.061Z,7.00
2024-02-27T18:05:28.096Z,6.90
2024-02-27T18:07:55.087Z,6.90
2024-02-27T18:10:21.968Z,6.80
2024-02-27T18:12:49.027Z,6.70
2024-02-27T18:15:20.052Z,6.70
2024-02-27T18:17:49.680Z,6.60
2024-02-27T18:20:17.174Z,6.60
2024-02-27T18:22:45.008Z,6.50
2024-02-27T18:25:13.172Z,6.50
2024-02-27T18:27:41.194Z,6.40
2024-02-27T18:30:10.355Z,6.40
2024-02-27T18:32:41.588Z,6.30
2024-02-27T18:35:09.437Z,6.30
2024-02-27T18:37:36.447Z,6.20
2024-02-27T18:40:05.635Z,6.20
2024-02-27T18:42:32.786Z,6.20
2024-02-27T18:44:59.732Z,6.20
2024-02-27T18:47:26.639Z,6.10
2024-02-27T18:49:53.809Z,6.10
2024-02-27T18:52:21.059Z,6.00
2024-02-27T18:54:48.682Z,6.00
2024-02-27T18:57:15.964Z,5.90
2024-02-27T18:59:43.042Z,5.90
2024-02-27T19:02:10.368Z,5.90
2024-02-27T19:04:37.294Z,5.90
2024-02-27T19:07:05.268Z,5.90
2024-02-27T19:09:32.418Z,5.80
2024-02-27T19:11:59.671Z,5.80
2024-02-27T19:14:26.854Z,5.80
2024-02-27T19:16:54.143Z,5.80
2024-02-27T19:19:21.080Z,5.70
2024-02-27T19:21:49.273Z,5.70
2024-02-27T19:24:17.495Z,5.60
2024-02-27T19:26:44.593Z,5.60
2024-02-27T19:29:11.501Z,5.60
2024-02-27T19:31:38.650Z,5.60
2024-02-27T19:34:05.708Z,5.60
2024-02-27T19:36:34.074Z,5.60
2024-02-27T19:39:02.603Z,5.60
2024-02-27T19:41:29.522Z,5.60
2024-02-27T19:43:56.404Z,5.50
2024-02-27T19:46:25.332Z,5.50
2024-02-27T19:48:52.449Z,5.50
2024-02-27T19:51:21.165Z,5.50
2024-02-27T19:53:49.849Z,5.40
2024-02-27T19:56:18.264Z,5.50
2024-02-27T19:58:45.389Z,5.40
2024-02-27T20:01:14.472Z,5.40
2024-02-27T20:03:42.064Z,5.40
2024-02-27T20:06:09.284Z,5.40
2024-02-27T20:08:37.147Z,5.40
2024-02-27T20:11:04.484Z,5.40
2024-02-27T20:13:31.543Z,5.40
2024-02-27T20:15:59.988Z,5.30
2024-02-27T20:18:27.107Z,5.30
2024-02-27T20:21:00.032Z,5.30
2024-02-27T20:23:26.922Z,5.30
2024-02-27T20:25:54.828Z,5.40
2024-02-27T20:28:21.848Z,5.40
2024-02-27T20:30:51.388Z,5.40
2024-02-27T20:33:18.701Z,5.30
2024-02-27T20:35:47.879Z,5.30
2024-02-27T20:38:17.529Z,5.30
2024-02-27T20:40:48.850Z,5.30
2024-02-27T20:43:15.744Z,5.30
2024-02-27T20:45:43.079Z,5.30
2024-02-27T20:48:10.521Z,5.40
2024-02-27T20:50:38.150Z,5.40
2024-02-27T20:53:05.197Z,5.50
2024-02-27T20:55:32.122Z,5.40
2024-02-27T20:57:59.129Z,5.50
2024-02-27T21:00:26.011Z,5.30
2024-02-27T21:02:53.544Z,5.30
2024-02-27T21:05:20.654Z,5.20
2024-02-27T21:07:47.629Z,5.20
2024-02-27T21:10:14.600Z,5.30
2024-02-27T21:12:41.557Z,5.30
2024-02-27T21:15:09.899Z,5.40
2024-02-27T21:17:36.968Z,5.40
2024-02-27T21:20:04.660Z,5.30
2024-02-27T21:22:31.522Z,5.40
2024-02-27T21:24:58.425Z,5.40
2024-02-27T21:27:25.368Z,5.40
2024-02-27T21:29:52.312Z,5.40
2024-02-27T21:32:19.211Z,5.40
2024-02-27T21:34:46.579Z,5.50
2024-02-27T21:37:13.576Z,5.50
2024-02-27T21:39:41.156Z,5.50
2024-02-27T21:42:08.300Z,5.50
2024-02-27T21:44:35.227Z,5.50
2024-02-27T21:47:02.195Z,5.60
2024-02-27T21:49:29.216Z,5.60
2024-02-27T21:52:02.573Z,5.60
2024-02-27T21:54:30.587Z,5.60
2024-02-27T21:56:57.732Z,5.70
2024-02-27T21:59:24.622Z,5.70
2024-02-27T22:01:51.999Z,5.60
2024-02-27T22:04:19.849Z,5.80
2024-02-27T22:06:47.563Z,5.80
2024-02-27T22:09:15.023Z,5.70
2024-02-27T22:11:42.506Z,5.70
2024-02-27T22:14:11.395Z,5.70
2024-02-27T22:16:38.449Z,5.70
2024-02-27T22:19:05.671Z,5.80
2024-02-27T22:21:32.690Z,5.80
2024-02-27T22:23:59.715Z,5.90
2024-02-27T22:26:26.662Z,6.00
2024-02-27T22:28:53.566Z,6.00
2024-02-27T22:31:20.470Z,6.00
2024-02-27T22:33:47.422Z,6.10
2024-02-27T22:36:15.525Z,6.10
2024-02-27T22:38:42.727Z,6.20
2024-02-27T22:41:10.914Z,6.20
2024-02-27T22:43:38.903Z,6.20
2024-02-27T22:46:06.145Z,6.20
2024-02-27T22:48:33.204Z,6.30
2024-02-27T22:51:00.151Z,6.20
2024-02-27T22:53:27.087Z,6.30
2024-02-27T22:55:54.038Z,6.30
2024-02-27T22:58:20.937Z,6.30
2024-02-27T23:00:47.924Z,6.30
2024-02-27T23:03:15.021Z,6.30
2024-02-27T23:05:42.034Z,6.30
2024-02-27T23:08:09.049Z,6.30
2024-02-27T23:10:36.016Z,6.30
2024-02-27T23:13:03.101Z,6.40
2024-02-27T23:15:30.045Z,6.30
2024-02-27T23:17:57.150Z,6.30
2024-02-27T23:20:24.929Z,6.20
2024-02-27T23:22:51.968Z,6.20
2024-02-27T23:25:19.245Z,6.30
2024-02-27T23:27:46.147Z,6.20
2024-02-27T23:30:13.103Z,6.10
2024-02-27T23:32:40.139Z,6.10
2024-02-27T23:35:07.485Z,6.00
2024-02-27T23:37:34.350Z,5.90
2024-02-27T23:40:01.230Z,5.90
2024-02-27T23:42:28.462Z,5.90
2024-02-27T23:44:56.017Z,5.80
2024-02-27T23:47:23.249Z,5.70
2024-02-27T23:49:50.205Z,5.60
2024-02-27T23:52:17.165Z,5.40
2024-02-27T23:54:44.364Z,5.30
2024-02-27T23:57:11.567Z,5.30
2024-02-27T23:59:38.578Z,5.30
